sensor_id;sensor_type;location;lat;lon;timestamp;temperature;humidity
10472;DHT22;5283;48.876;8.962;2023-05-10T00:00:23;12.50;99.90
10472;DHT22;5283;48.876;8.962;2023-05-10T00:02:50;12.40;99.90
10472;DHT22;5283;48.876;8.962;2023-05-10T00:05:17;12.40;99.90
10472;DHT22;5283;48.876;8.962;2023-05-10T00:07:44;12.40;99.90
10472;DHT22;5283;48.876;8.962;2023-05-10T00:10:13;12.30;99.90
10472;DHT22;5283;48.876;8.962;2023-05-10T00:12:40;12.40;99.90
10472;DHT22;5283;48.876;8.962;2023-05-10T00:15:08;12.30;99.90
10472;DHT22;5283;48.876;8.962;2023-05-10T00:17:34;12.30;99.90
10472;DHT22;5283;48.876;8.962;2023-05-10T00:20:01;12.30;99.90
10472;DHT22;5283;48.876;8.962;2023-05-10T00:22:28;12.30;99.90
10472;DHT22;5283;48.876;8.962;2023-05-10T00:24:55;12.30;99.90
10472;DHT22;5283;48.876;8.962;2023-05-10T00:27:21;12.30;99.90
10472;DHT22;5283;48.876;8.962;2023-05-10T00:29:49;12.20;99.90
10472;DHT22;5283;48.876;8.962;2023-05-10T00:32:15;12.20;99.90
10472;DHT22;5283;48.876;8.962;2023-05-10T00:34:42;12.20;99.90
10472;DHT22;5283;48.876;8.962;2023-05-10T00:37:09;12.20;99.90
10472;DHT22;5283;48.876;8.962;2023-05-10T00:39:35;12.30;99.90
10472;DHT22;5283;48.876;8.962;2023-05-10T00:42:02;12.30;99.90
10472;DHT22;5283;48.876;8.962;2023-05-10T00:44:29;12.20;99.90
10472;DHT22;5283;48.876;8.962;2023-05-10T00:46:55;12.20;99.90
10472;DHT22;5283;48.876;8.962;2023-05-10T00:49:22;12.20;99.90
10472;DHT22;5283;48.876;8.962;2023-05-10T00:51:49;12.30;99.90
10472;DHT22;5283;48.876;8.962;2023-05-10T00:54:16;12.30;99.90
10472;DHT22;5283;48.876;8.962;2023-05-10T00:56:43;12.30;99.90
10472;DHT22;5283;48.876;8.962;2023-05-10T00:59:16;12.30;99.90
10472;DHT22;5283;48.876;8.962;2023-05-10T01:01:46;12.20;99.90
10472;DHT22;5283;48.876;8.962;2023-05-10T01:04:14;12.20;99.90
10472;DHT22;5283;48.876;8.962;2023-05-10T01:06:42;12.20;99.90
10472;DHT22;5283;48.876;8.962;2023-05-10T01:09:09;12.20;99.90
10472;DHT22;5283;48.876;8.962;2023-05-10T01:11:38;12.20;99.90
10472;DHT22;5283;48.876;8.962;2023-05-10T01:14:06;12.20;99.90
10472;DHT22;5283;48.876;8.962;2023-05-10T01:16:36;12.20;99.90
10472;DHT22;5283;48.876;8.962;2023-05-10T01:19:06;12.20;99.90
10472;DHT22;5283;48.876;8.962;2023-05-10T01:24:40;12.20;99.90
10472;DHT22;5283;48.876;8.962;2023-05-10T01:36:32;12.20;99.90
10472;DHT22;5283;48.876;8.962;2023-05-10T01:44:42;12.20;99.90
10472;DHT22;5283;48.876;8.962;2023-05-10T01:47:20;12.10;99.90
10472;DHT22;5283;48.876;8.962;2023-05-10T01:49:54;12.10;99.90
10472;DHT22;5283;48.876;8.962;2023-05-10T01:52:33;12.10;99.90
10472;DHT22;5283;48.876;8.962;2023-05-10T01:55:09;12.00;99.90
10472;DHT22;5283;48.876;8.962;2023-05-10T01:57:39;12.00;99.90
10472;DHT22;5283;48.876;8.962;2023-05-10T02:00:08;12.00;99.90
10472;DHT22;5283;48.876;8.962;2023-05-10T02:02:37;12.00;99.90
10472;DHT22;5283;48.876;8.962;2023-05-10T02:05:06;11.90;99.90
10472;DHT22;5283;48.876;8.962;2023-05-10T02:07:35;12.00;99.90
10472;DHT22;5283;48.876;8.962;2023-05-10T02:10:04;12.00;99.90
10472;DHT22;5283;48.876;8.962;2023-05-10T02:12:35;11.90;99.90
10472;DHT22;5283;48.876;8.962;2023-05-10T02:15:04;11.80;99.90
10472;DHT22;5283;48.876;8.962;2023-05-10T02:17:32;11.70;99.90
10472;DHT22;5283;48.876;8.962;2023-05-10T02:20:01;11.80;99.90
10472;DHT22;5283;48.876;8.962;2023-05-10T02:22:28;11.80;99.90
10472;DHT22;5283;48.876;8.962;2023-05-10T02:24:58;11.80;99.90
10472;DHT22;5283;48.876;8.962;2023-05-10T02:27:27;11.80;99.90
10472;DHT22;5283;48.876;8.962;2023-05-10T02:29:54;11.80;99.90
10472;DHT22;5283;48.876;8.962;2023-05-10T02:32:22;11.80;99.90
10472;DHT22;5283;48.876;8.962;2023-05-10T02:34:51;11.80;99.90
10472;DHT22;5283;48.876;8.962;2023-05-10T02:37:22;11.70;99.90
10472;DHT22;5283;48.876;8.962;2023-05-10T02:39:50;11.70;99.90
10472;DHT22;5283;48.876;8.962;2023-05-10T02:42:19;11.70;99.90
10472;DHT22;5283;48.876;8.962;2023-05-10T02:44:51;11.70;99.90
10472;DHT22;5283;48.876;8.962;2023-05-10T02:47:19;11.60;99.90
10472;DHT22;5283;48.876;8.962;2023-05-10T02:49:46;11.60;99.90
10472;DHT22;5283;48.876;8.962;2023-05-10T02:52:16;11.60;99.90
10472;DHT22;5283;48.876;8.962;2023-05-10T02:54:48;11.60;99.90
10472;DHT22;5283;48.876;8.962;2023-05-10T02:57:17;11.70;99.90
10472;DHT22;5283;48.876;8.962;2023-05-10T02:59:47;11.80;99.90
10472;DHT22;5283;48.876;8.962;2023-05-10T03:02:14;11.80;99.90
10472;DHT22;5283;48.876;8.962;2023-05-10T03:04:41;11.90;99.90
10472;DHT22;5283;48.876;8.962;2023-05-10T03:07:08;11.90;99.90
10472;DHT22;5283;48.876;8.962;2023-05-10T03:09:35;11.90;99.90
10472;DHT22;5283;48.876;8.962;2023-05-10T03:17:55;12.00;99.90
10472;DHT22;5283;48.876;8.962;2023-05-10T03:20:29;12.00;99.90
10472;DHT22;5283;48.876;8.962;2023-05-10T03:23:05;12.00;99.90
10472;DHT22;5283;48.876;8.962;2023-05-10T03:25:35;12.00;99.90
10472;DHT22;5283;48.876;8.962;2023-05-10T03:28:02;12.00;99.90
10472;DHT22;5283;48.876;8.962;2023-05-10T03:30:31;12.00;99.90
10472;DHT22;5283;48.876;8.962;2023-05-10T03:33:04;12.10;99.90
10472;DHT22;5283;48.876;8.962;2023-05-10T03:35:32;12.10;99.90
10472;DHT22;5283;48.876;8.962;2023-05-10T03:37:59;12.10;99.90
10472;DHT22;5283;48.876;8.962;2023-05-10T03:40:27;12.10;99.90
10472;DHT22;5283;48.876;8.962;2023-05-10T03:42:58;12.10;99.90
10472;DHT22;5283;48.876;8.962;2023-05-10T03:45:25;12.10;99.90
10472;DHT22;5283;48.876;8.962;2023-05-10T03:47:52;12.10;99.90
10472;DHT22;5283;48.876;8.962;2023-05-10T03:50:19;12.10;99.90
10472;DHT22;5283;48.876;8.962;2023-05-10T03:52:46;12.00;99.90
10472;DHT22;5283;48.876;8.962;2023-05-10T03:55:13;12.00;99.90
10472;DHT22;5283;48.876;8.962;2023-05-10T03:57:39;12.00;99.90
10472;DHT22;5283;48.876;8.962;2023-05-10T04:00:06;12.10;99.90
10472;DHT22;5283;48.876;8.962;2023-05-10T04:02:33;12.10;99.90
10472;DHT22;5283;48.876;8.962;2023-05-10T04:05:00;12.00;99.90
10472;DHT22;5283;48.876;8.962;2023-05-10T04:07:26;12.10;99.90
10472;DHT22;5283;48.876;8.962;2023-05-10T04:09:53;12.10;99.90
10472;DHT22;5283;48.876;8.962;2023-05-10T04:12:20;12.10;99.90
10472;DHT22;5283;48.876;8.962;2023-05-10T04:14:46;12.00;99.90
10472;DHT22;5283;48.876;8.962;2023-05-10T04:17:13;12.00;99.90
10472;DHT22;5283;48.876;8.962;2023-05-10T04:19:40;11.90;99.90
10472;DHT22;5283;48.876;8.962;2023-05-10T04:22:06;11.90;99.90
10472;DHT22;5283;48.876;8.962;2023-05-10T04:24:33;11.90;99.90
10472;DHT22;5283;48.876;8.962;2023-05-10T04:26:59;11.90;99.90
10472;DHT22;5283;48.876;8.962;2023-05-10T04:29:26;11.90;99.90
10472;DHT22;5283;48.876;8.962;2023-05-10T04:31:54;11.90;99.90
10472;DHT22;5283;48.876;8.962;2023-05-10T04:34:21;11.90;99.90
10472;DHT22;5283;48.876;8.962;2023-05-10T04:36:47;11.90;99.90
10472;DHT22;5283;48.876;8.962;2023-05-10T04:39:14;11.90;99.90
10472;DHT22;5283;48.876;8.962;2023-05-10T04:41:41;12.00;99.90
10472;DHT22;5283;48.876;8.962;2023-05-10T04:44:07;12.00;99.90
10472;DHT22;5283;48.876;8.962;2023-05-10T04:46:34;12.00;99.90
10472;DHT22;5283;48.876;8.962;2023-05-10T04:49:00;12.10;99.90
10472;DHT22;5283;48.876;8.962;2023-05-10T04:51:27;12.10;99.90
10472;DHT22;5283;48.876;8.962;2023-05-10T04:53:54;12.10;99.90
10472;DHT22;5283;48.876;8.962;2023-05-10T04:56:27;12.20;99.90
10472;DHT22;5283;48.876;8.962;2023-05-10T04:58:54;12.20;99.90
10472;DHT22;5283;48.876;8.962;2023-05-10T05:01:20;12.20;99.90
10472;DHT22;5283;48.876;8.962;2023-05-10T05:03:47;12.30;99.90
10472;DHT22;5283;48.876;8.962;2023-05-10T05:06:14;12.30;99.90
10472;DHT22;5283;48.876;8.962;2023-05-10T05:08:41;12.40;99.90
10472;DHT22;5283;48.876;8.962;2023-05-10T05:11:07;12.50;99.90
10472;DHT22;5283;48.876;8.962;2023-05-10T05:13:34;12.60;99.90
10472;DHT22;5283;48.876;8.962;2023-05-10T05:16:02;12.70;99.90
10472;DHT22;5283;48.876;8.962;2023-05-10T05:18:29;12.80;99.90
10472;DHT22;5283;48.876;8.962;2023-05-10T05:20:55;12.90;99.90
10472;DHT22;5283;48.876;8.962;2023-05-10T05:23:22;13.00;99.90
10472;DHT22;5283;48.876;8.962;2023-05-10T05:25:52;13.10;99.90
10472;DHT22;5283;48.876;8.962;2023-05-10T05:28:22;13.10;99.90
10472;DHT22;5283;48.876;8.962;2023-05-10T05:30:49;13.10;99.90
10472;DHT22;5283;48.876;8.962;2023-05-10T05:33:15;13.10;99.90
10472;DHT22;5283;48.876;8.962;2023-05-10T05:35:42;13.10;99.90
10472;DHT22;5283;48.876;8.962;2023-05-10T05:38:13;13.20;99.90
10472;DHT22;5283;48.876;8.962;2023-05-10T05:40:40;13.30;99.90
10472;DHT22;5283;48.876;8.962;2023-05-10T05:43:07;13.30;99.90
10472;DHT22;5283;48.876;8.962;2023-05-10T05:45:34;13.40;99.90
10472;DHT22;5283;48.876;8.962;2023-05-10T05:48:01;13.40;99.90
10472;DHT22;5283;48.876;8.962;2023-05-10T05:50:27;13.40;99.90
10472;DHT22;5283;48.876;8.962;2023-05-10T05:52:54;13.40;99.90
10472;DHT22;5283;48.876;8.962;2023-05-10T05:55:21;13.40;99.90
10472;DHT22;5283;48.876;8.962;2023-05-10T05:57:48;13.30;99.90
10472;DHT22;5283;48.876;8.962;2023-05-10T06:00:15;13.30;99.90
10472;DHT22;5283;48.876;8.962;2023-05-10T06:02:42;13.30;99.90
10472;DHT22;5283;48.876;8.962;2023-05-10T06:05:08;13.50;99.90
10472;DHT22;5283;48.876;8.962;2023-05-10T06:07:35;13.60;99.90
10472;DHT22;5283;48.876;8.962;2023-05-10T06:10:02;13.70;99.90
10472;DHT22;5283;48.876;8.962;2023-05-10T06:12:29;13.90;99.90
10472;DHT22;5283;48.876;8.962;2023-05-10T06:14:56;14.10;99.90
10472;DHT22;5283;48.876;8.962;2023-05-10T06:17:23;14.30;99.90
10472;DHT22;5283;48.876;8.962;2023-05-10T06:19:50;14.40;99.90
10472;DHT22;5283;48.876;8.962;2023-05-10T06:22:17;14.50;99.90
10472;DHT22;5283;48.876;8.962;2023-05-10T06:24:44;14.50;99.90
10472;DHT22;5283;48.876;8.962;2023-05-10T06:27:10;14.30;99.90
10472;DHT22;5283;48.876;8.962;2023-05-10T06:29:37;14.30;99.90
10472;DHT22;5283;48.876;8.962;2023-05-10T06:32:04;14.40;99.90
10472;DHT22;5283;48.876;8.962;2023-05-10T06:34:31;14.50;99.90
10472;DHT22;5283;48.876;8.962;2023-05-10T06:36:58;14.60;99.90
10472;DHT22;5283;48.876;8.962;2023-05-10T06:39:24;14.60;99.90
10472;DHT22;5283;48.876;8.962;2023-05-10T06:41:51;14.50;99.90
10472;DHT22;5283;48.876;8.962;2023-05-10T06:44:18;14.40;99.90
10472;DHT22;5283;48.876;8.962;2023-05-10T06:46:45;14.60;99.90
10472;DHT22;5283;48.876;8.962;2023-05-10T06:49:11;14.60;99.90
10472;DHT22;5283;48.876;8.962;2023-05-10T06:51:38;14.20;99.90
10472;DHT22;5283;48.876;8.962;2023-05-10T06:54:05;14.20;99.90
10472;DHT22;5283;48.876;8.962;2023-05-10T06:56:32;14.10;99.90
10472;DHT22;5283;48.876;8.962;2023-05-10T06:58:58;14.00;99.90
10472;DHT22;5283;48.876;8.962;2023-05-10T07:01:25;14.10;99.90
10472;DHT22;5283;48.876;8.962;2023-05-10T07:03:52;14.30;99.90
10472;DHT22;5283;48.876;8.962;2023-05-10T07:06:19;14.50;99.90
10472;DHT22;5283;48.876;8.962;2023-05-10T07:08:52;14.70;99.90
10472;DHT22;5283;48.876;8.962;2023-05-10T07:11:18;14.90;99.90
10472;DHT22;5283;48.876;8.962;2023-05-10T07:13:45;15.10;99.90
10472;DHT22;5283;48.876;8.962;2023-05-10T07:16:12;15.40;99.90
10472;DHT22;5283;48.876;8.962;2023-05-10T07:18:39;15.20;99.90
10472;DHT22;5283;48.876;8.962;2023-05-10T07:21:06;15.20;99.90
10472;DHT22;5283;48.876;8.962;2023-05-10T07:23:33;15.10;99.90
10472;DHT22;5283;48.876;8.962;2023-05-10T07:25:59;15.00;99.90
10472;DHT22;5283;48.876;8.962;2023-05-10T07:28:26;14.80;99.90
10472;DHT22;5283;48.876;8.962;2023-05-10T07:30:53;15.00;99.90
10472;DHT22;5283;48.876;8.962;2023-05-10T07:33:19;15.10;99.90
10472;DHT22;5283;48.876;8.962;2023-05-10T07:35:46;15.00;99.90
10472;DHT22;5283;48.876;8.962;2023-05-10T07:38:13;15.30;99.90
10472;DHT22;5283;48.876;8.962;2023-05-10T07:40:40;15.50;99.90
10472;DHT22;5283;48.876;8.962;2023-05-10T07:43:06;15.70;99.90
10472;DHT22;5283;48.876;8.962;2023-05-10T07:45:33;15.80;99.90
10472;DHT22;5283;48.876;8.962;2023-05-10T07:48:00;15.70;99.90
10472;DHT22;5283;48.876;8.962;2023-05-10T07:50:27;15.40;99.90
10472;DHT22;5283;48.876;8.962;2023-05-10T07:52:54;15.20;99.90
10472;DHT22;5283;48.876;8.962;2023-05-10T07:55:21;15.30;99.90
10472;DHT22;5283;48.876;8.962;2023-05-10T07:57:48;15.10;99.90
10472;DHT22;5283;48.876;8.962;2023-05-10T08:00:18;15.20;99.90
10472;DHT22;5283;48.876;8.962;2023-05-10T08:02:45;15.00;99.90
10472;DHT22;5283;48.876;8.962;2023-05-10T08:05:12;14.90;99.90
10472;DHT22;5283;48.876;8.962;2023-05-10T08:07:39;14.80;99.90
10472;DHT22;5283;48.876;8.962;2023-05-10T08:10:06;14.80;99.90
10472;DHT22;5283;48.876;8.962;2023-05-10T08:12:33;14.70;99.90
10472;DHT22;5283;48.876;8.962;2023-05-10T08:15:00;14.80;99.90
10472;DHT22;5283;48.876;8.962;2023-05-10T08:17:26;14.80;99.90
10472;DHT22;5283;48.876;8.962;2023-05-10T08:19:53;14.70;99.90
10472;DHT22;5283;48.876;8.962;2023-05-10T08:22:20;14.70;99.90
10472;DHT22;5283;48.876;8.962;2023-05-10T08:24:46;14.80;99.90
10472;DHT22;5283;48.876;8.962;2023-05-10T08:27:13;14.90;99.90
10472;DHT22;5283;48.876;8.962;2023-05-10T08:29:40;14.70;99.90
10472;DHT22;5283;48.876;8.962;2023-05-10T08:32:12;14.70;99.90
10472;DHT22;5283;48.876;8.962;2023-05-10T08:34:38;14.90;99.90
10472;DHT22;5283;48.876;8.962;2023-05-10T08:37:05;15.10;99.90
10472;DHT22;5283;48.876;8.962;2023-05-10T08:39:34;15.20;99.90
10472;DHT22;5283;48.876;8.962;2023-05-10T08:42:03;15.40;99.90
10472;DHT22;5283;48.876;8.962;2023-05-10T08:44:35;15.50;99.90
10472;DHT22;5283;48.876;8.962;2023-05-10T08:47:05;15.70;99.90
10472;DHT22;5283;48.876;8.962;2023-05-10T08:49:37;15.80;99.90
10472;DHT22;5283;48.876;8.962;2023-05-10T08:52:04;15.60;99.90
10472;DHT22;5283;48.876;8.962;2023-05-10T08:54:33;15.50;99.90
10472;DHT22;5283;48.876;8.962;2023-05-10T08:57:00;15.70;99.90
10472;DHT22;5283;48.876;8.962;2023-05-10T08:59:27;15.70;99.90
10472;DHT22;5283;48.876;8.962;2023-05-10T09:01:57;15.70;99.90
10472;DHT22;5283;48.876;8.962;2023-05-10T09:04:24;15.70;99.90
10472;DHT22;5283;48.876;8.962;2023-05-10T09:06:51;15.80;99.90
10472;DHT22;5283;48.876;8.962;2023-05-10T09:09:19;16.10;99.90
10472;DHT22;5283;48.876;8.962;2023-05-10T09:11:46;16.20;99.90
10472;DHT22;5283;48.876;8.962;2023-05-10T09:14:15;16.30;99.90
10472;DHT22;5283;48.876;8.962;2023-05-10T09:16:42;16.10;99.90
10472;DHT22;5283;48.876;8.962;2023-05-10T09:19:09;16.20;99.90
10472;DHT22;5283;48.876;8.962;2023-05-10T09:21:36;16.00;99.90
10472;DHT22;5283;48.876;8.962;2023-05-10T09:24:06;15.50;99.90
10472;DHT22;5283;48.876;8.962;2023-05-10T09:26:33;15.30;99.90
10472;DHT22;5283;48.876;8.962;2023-05-10T09:29:02;15.10;99.90
10472;DHT22;5283;48.876;8.962;2023-05-10T09:31:49;15.20;99.90
10472;DHT22;5283;48.876;8.962;2023-05-10T09:34:30;15.40;99.90
10472;DHT22;5283;48.876;8.962;2023-05-10T09:37:02;15.60;99.90
10472;DHT22;5283;48.876;8.962;2023-05-10T09:39:35;15.60;99.90
10472;DHT22;5283;48.876;8.962;2023-05-10T09:42:04;15.50;99.90
10472;DHT22;5283;48.876;8.962;2023-05-10T09:44:33;15.40;99.90
10472;DHT22;5283;48.876;8.962;2023-05-10T09:47:03;15.50;99.90
10472;DHT22;5283;48.876;8.962;2023-05-10T09:49:30;15.20;99.90
10472;DHT22;5283;48.876;8.962;2023-05-10T09:52:07;15.00;99.90
10472;DHT22;5283;48.876;8.962;2023-05-10T09:54:34;15.30;99.90
10472;DHT22;5283;48.876;8.962;2023-05-10T09:57:01;15.80;99.90
10472;DHT22;5283;48.876;8.962;2023-05-10T09:59:28;16.00;99.90
10472;DHT22;5283;48.876;8.962;2023-05-10T10:01:59;15.90;99.90
10472;DHT22;5283;48.876;8.962;2023-05-10T10:04:26;15.90;99.90
10472;DHT22;5283;48.876;8.962;2023-05-10T10:07:01;15.80;99.90
10472;DHT22;5283;48.876;8.962;2023-05-10T10:09:28;15.70;99.90
10472;DHT22;5283;48.876;8.962;2023-05-10T10:11:55;15.80;99.90
10472;DHT22;5283;48.876;8.962;2023-05-10T10:14:24;15.60;99.90
10472;DHT22;5283;48.876;8.962;2023-05-10T10:16:53;15.40;99.90
10472;DHT22;5283;48.876;8.962;2023-05-10T10:19:33;15.60;99.90
10472;DHT22;5283;48.876;8.962;2023-05-10T10:22:00;15.40;99.90
10472;DHT22;5283;48.876;8.962;2023-05-10T10:24:27;15.40;99.90
10472;DHT22;5283;48.876;8.962;2023-05-10T10:27:01;15.20;99.90
10472;DHT22;5283;48.876;8.962;2023-05-10T10:34:47;15.50;99.90
10472;DHT22;5283;48.876;8.962;2023-05-10T10:37:14;15.70;99.90
10472;DHT22;5283;48.876;8.962;2023-05-10T10:39:40;15.70;99.90
10472;DHT22;5283;48.876;8.962;2023-05-10T10:42:07;15.50;99.90
10472;DHT22;5283;48.876;8.962;2023-05-10T10:44:36;15.60;99.90
10472;DHT22;5283;48.876;8.962;2023-05-10T10:52:26;16.40;99.90
10472;DHT22;5283;48.876;8.962;2023-05-10T10:55:02;16.40;99.90
10472;DHT22;5283;48.876;8.962;2023-05-10T10:57:53;16.40;99.90
10472;DHT22;5283;48.876;8.962;2023-05-10T11:00:28;16.30;99.90
10472;DHT22;5283;48.876;8.962;2023-05-10T11:08:30;16.30;99.90
10472;DHT22;5283;48.876;8.962;2023-05-10T11:18:41;16.20;99.90
10472;DHT22;5283;48.876;8.962;2023-05-10T11:21:17;16.10;99.90
10472;DHT22;5283;48.876;8.962;2023-05-10T11:23:55;15.90;99.90
10472;DHT22;5283;48.876;8.962;2023-05-10T11:26:30;16.00;99.90
10472;DHT22;5283;48.876;8.962;2023-05-10T11:28:57;16.10;99.90
10472;DHT22;5283;48.876;8.962;2023-05-10T11:31:28;16.20;99.90
10472;DHT22;5283;48.876;8.962;2023-05-10T11:33:57;16.10;99.90
10472;DHT22;5283;48.876;8.962;2023-05-10T11:36:27;15.90;99.90
10472;DHT22;5283;48.876;8.962;2023-05-10T11:38:54;16.10;99.90
10472;DHT22;5283;48.876;8.962;2023-05-10T11:41:22;16.10;99.90
10472;DHT22;5283;48.876;8.962;2023-05-10T11:43:51;16.00;99.90
10472;DHT22;5283;48.876;8.962;2023-05-10T11:46:25;15.70;99.90
10472;DHT22;5283;48.876;8.962;2023-05-10T11:48:58;15.90;99.90
10472;DHT22;5283;48.876;8.962;2023-05-10T11:51:27;15.80;99.90
10472;DHT22;5283;48.876;8.962;2023-05-10T11:53:55;15.80;99.90
10472;DHT22;5283;48.876;8.962;2023-05-10T11:56:22;15.90;99.90
10472;DHT22;5283;48.876;8.962;2023-05-10T11:58:55;15.70;99.90
10472;DHT22;5283;48.876;8.962;2023-05-10T12:01:22;15.90;99.90
10472;DHT22;5283;48.876;8.962;2023-05-10T12:03:51;16.10;99.90
10472;DHT22;5283;48.876;8.962;2023-05-10T12:06:19;15.70;99.90
10472;DHT22;5283;48.876;8.962;2023-05-10T12:08:47;15.40;99.90
10472;DHT22;5283;48.876;8.962;2023-05-10T12:11:18;15.30;99.90
10472;DHT22;5283;48.876;8.962;2023-05-10T12:13:45;15.20;99.90
10472;DHT22;5283;48.876;8.962;2023-05-10T12:16:20;15.00;99.90
10472;DHT22;5283;48.876;8.962;2023-05-10T12:18:52;15.00;99.90
10472;DHT22;5283;48.876;8.962;2023-05-10T12:21:20;15.00;99.90
10472;DHT22;5283;48.876;8.962;2023-05-10T12:23:49;15.20;99.90
10472;DHT22;5283;48.876;8.962;2023-05-10T12:26:16;15.10;99.90
10472;DHT22;5283;48.876;8.962;2023-05-10T12:28:43;15.20;99.90
10472;DHT22;5283;48.876;8.962;2023-05-10T12:31:10;15.40;99.90
10472;DHT22;5283;48.876;8.962;2023-05-10T12:33:42;15.20;99.90
10472;DHT22;5283;48.876;8.962;2023-05-10T12:36:11;15.20;99.90
10472;DHT22;5283;48.876;8.962;2023-05-10T12:38:40;15.50;99.90
10472;DHT22;5283;48.876;8.962;2023-05-10T12:41:11;15.60;99.90
10472;DHT22;5283;48.876;8.962;2023-05-10T12:43:38;15.70;99.90
10472;DHT22;5283;48.876;8.962;2023-05-10T12:48:33;16.10;99.90
10472;DHT22;5283;48.876;8.962;2023-05-10T12:51:01;16.40;99.90
10472;DHT22;5283;48.876;8.962;2023-05-10T12:53:28;16.40;99.90
10472;DHT22;5283;48.876;8.962;2023-05-10T12:55:55;16.40;99.90
10472;DHT22;5283;48.876;8.962;2023-05-10T12:58:22;16.40;99.90
10472;DHT22;5283;48.876;8.962;2023-05-10T13:00:58;16.20;99.90
10472;DHT22;5283;48.876;8.962;2023-05-10T13:03:25;16.60;99.90
10472;DHT22;5283;48.876;8.962;2023-05-10T13:05:52;16.70;99.90
10472;DHT22;5283;48.876;8.962;2023-05-10T13:08:18;16.50;99.90
10472;DHT22;5283;48.876;8.962;2023-05-10T13:10:45;16.40;99.90
10472;DHT22;5283;48.876;8.962;2023-05-10T13:13:12;16.50;99.90
10472;DHT22;5283;48.876;8.962;2023-05-10T13:15:38;16.70;99.90
10472;DHT22;5283;48.876;8.962;2023-05-10T13:18:05;16.70;99.90
10472;DHT22;5283;48.876;8.962;2023-05-10T13:20:32;16.60;99.90
10472;DHT22;5283;48.876;8.962;2023-05-10T13:22:58;16.40;99.90
10472;DHT22;5283;48.876;8.962;2023-05-10T13:25:25;16.30;99.90
10472;DHT22;5283;48.876;8.962;2023-05-10T13:27:52;16.10;99.90
10472;DHT22;5283;48.876;8.962;2023-05-10T13:30:19;16.20;99.90
10472;DHT22;5283;48.876;8.962;2023-05-10T13:32:46;16.30;99.90
10472;DHT22;5283;48.876;8.962;2023-05-10T13:35:13;16.30;99.90
10472;DHT22;5283;48.876;8.962;2023-05-10T13:37:40;16.40;99.90
10472;DHT22;5283;48.876;8.962;2023-05-10T13:40:07;16.20;99.90
10472;DHT22;5283;48.876;8.962;2023-05-10T13:42:34;16.10;99.90
10472;DHT22;5283;48.876;8.962;2023-05-10T13:45:01;16.30;99.90
10472;DHT22;5283;48.876;8.962;2023-05-10T13:47:28;16.40;99.90
10472;DHT22;5283;48.876;8.962;2023-05-10T13:49:56;16.30;99.90
10472;DHT22;5283;48.876;8.962;2023-05-10T13:52:23;16.60;99.90
10472;DHT22;5283;48.876;8.962;2023-05-10T13:54:50;16.70;99.90
10472;DHT22;5283;48.876;8.962;2023-05-10T13:57:18;17.10;99.90
10472;DHT22;5283;48.876;8.962;2023-05-10T13:59:45;17.10;99.90
10472;DHT22;5283;48.876;8.962;2023-05-10T14:02:11;17.40;99.90
10472;DHT22;5283;48.876;8.962;2023-05-10T14:04:39;17.10;99.90
10472;DHT22;5283;48.876;8.962;2023-05-10T14:07:06;16.70;99.90
10472;DHT22;5283;48.876;8.962;2023-05-10T14:09:32;16.40;99.90
10472;DHT22;5283;48.876;8.962;2023-05-10T14:11:59;16.40;99.90
10472;DHT22;5283;48.876;8.962;2023-05-10T14:14:26;16.30;99.90
10472;DHT22;5283;48.876;8.962;2023-05-10T14:16:52;16.30;99.90
10472;DHT22;5283;48.876;8.962;2023-05-10T14:19:19;16.30;99.90
10472;DHT22;5283;48.876;8.962;2023-05-10T14:21:46;16.30;99.90
10472;DHT22;5283;48.876;8.962;2023-05-10T14:24:12;16.30;99.90
10472;DHT22;5283;48.876;8.962;2023-05-10T14:26:39;16.40;99.90
10472;DHT22;5283;48.876;8.962;2023-05-10T14:29:06;16.60;99.90
10472;DHT22;5283;48.876;8.962;2023-05-10T14:31:33;16.40;99.90
10472;DHT22;5283;48.876;8.962;2023-05-10T14:34:00;16.50;99.90
10472;DHT22;5283;48.876;8.962;2023-05-10T14:36:27;16.40;99.90
10472;DHT22;5283;48.876;8.962;2023-05-10T14:38:53;16.30;99.90
10472;DHT22;5283;48.876;8.962;2023-05-10T14:41:20;16.20;99.90
10472;DHT22;5283;48.876;8.962;2023-05-10T14:43:46;16.30;99.90
10472;DHT22;5283;48.876;8.962;2023-05-10T14:46:13;16.70;99.90
10472;DHT22;5283;48.876;8.962;2023-05-10T14:48:40;16.90;99.90
10472;DHT22;5283;48.876;8.962;2023-05-10T14:51:06;17.10;99.90
10472;DHT22;5283;48.876;8.962;2023-05-10T14:53:33;16.90;99.90
10472;DHT22;5283;48.876;8.962;2023-05-10T14:56:00;16.60;99.90
10472;DHT22;5283;48.876;8.962;2023-05-10T14:58:28;16.60;99.90
10472;DHT22;5283;48.876;8.962;2023-05-10T15:00:54;16.50;99.90
10472;DHT22;5283;48.876;8.962;2023-05-10T15:03:21;16.40;99.90
10472;DHT22;5283;48.876;8.962;2023-05-10T15:05:48;16.40;99.90
10472;DHT22;5283;48.876;8.962;2023-05-10T15:08:15;16.40;99.90
10472;DHT22;5283;48.876;8.962;2023-05-10T15:10:42;16.50;99.90
10472;DHT22;5283;48.876;8.962;2023-05-10T15:13:09;16.70;99.90
10472;DHT22;5283;48.876;8.962;2023-05-10T15:15:35;16.50;99.90
10472;DHT22;5283;48.876;8.962;2023-05-10T15:18:02;16.60;99.90
10472;DHT22;5283;48.876;8.962;2023-05-10T15:20:29;16.70;99.90
10472;DHT22;5283;48.876;8.962;2023-05-10T15:22:55;16.80;99.90
10472;DHT22;5283;48.876;8.962;2023-05-10T15:25:22;16.80;99.90
10472;DHT22;5283;48.876;8.962;2023-05-10T15:27:50;16.50;99.90
10472;DHT22;5283;48.876;8.962;2023-05-10T15:30:16;16.20;99.90
10472;DHT22;5283;48.876;8.962;2023-05-10T15:32:43;16.10;99.90
10472;DHT22;5283;48.876;8.962;2023-05-10T15:35:10;16.10;99.90
10472;DHT22;5283;48.876;8.962;2023-05-10T15:37:37;15.90;99.90
10472;DHT22;5283;48.876;8.962;2023-05-10T15:40:05;16.00;99.90
10472;DHT22;5283;48.876;8.962;2023-05-10T15:42:32;16.30;99.90
10472;DHT22;5283;48.876;8.962;2023-05-10T15:44:59;16.30;99.90
10472;DHT22;5283;48.876;8.962;2023-05-10T15:47:26;16.20;99.90
10472;DHT22;5283;48.876;8.962;2023-05-10T15:49:53;16.20;99.90
10472;DHT22;5283;48.876;8.962;2023-05-10T15:52:20;16.10;99.90
10472;DHT22;5283;48.876;8.962;2023-05-10T15:54:47;16.10;99.90
10472;DHT22;5283;48.876;8.962;2023-05-10T15:57:13;16.40;99.90
10472;DHT22;5283;48.876;8.962;2023-05-10T15:59:40;16.50;99.90
10472;DHT22;5283;48.876;8.962;2023-05-10T16:02:08;16.50;99.90
10472;DHT22;5283;48.876;8.962;2023-05-10T16:04:36;16.40;99.90
10472;DHT22;5283;48.876;8.962;2023-05-10T16:07:03;16.40;99.90
10472;DHT22;5283;48.876;8.962;2023-05-10T16:09:29;16.40;99.90
10472;DHT22;5283;48.876;8.962;2023-05-10T16:11:56;16.40;99.90
10472;DHT22;5283;48.876;8.962;2023-05-10T16:14:23;16.40;99.90
10472;DHT22;5283;48.876;8.962;2023-05-10T16:16:50;16.70;99.90
10472;DHT22;5283;48.876;8.962;2023-05-10T16:19:17;16.60;99.90
10472;DHT22;5283;48.876;8.962;2023-05-10T16:21:46;16.40;99.90
10472;DHT22;5283;48.876;8.962;2023-05-10T16:24:12;16.10;99.90
10472;DHT22;5283;48.876;8.962;2023-05-10T16:26:39;16.00;99.90
10472;DHT22;5283;48.876;8.962;2023-05-10T16:29:07;15.80;99.90
10472;DHT22;5283;48.876;8.962;2023-05-10T16:31:34;15.80;99.90
10472;DHT22;5283;48.876;8.962;2023-05-10T16:34:00;15.80;99.90
10472;DHT22;5283;48.876;8.962;2023-05-10T16:36:27;15.70;99.90
10472;DHT22;5283;48.876;8.962;2023-05-10T16:38:55;15.50;99.90